CJX7 weather

CLOSED Old Arctic Bay Airport
Arctic Bay, Nunavut, Canada

Public forecast

Using degrees Celsius for public forecast. Weather courtesy of forecast.io.

Closest aviation weather report (METAR) to Old Arctic Bay Airport

Report is more than 6 hours old.

Closest report is Arctic Bay Airport, 0.2 nm (0.3 km) W. Retrieved 2019/12/06 21:00 UTC (22 hours ago):

CYAB 062100Z 07003KT 15SM FEW050 M31/M34 A2972 RMK SC1 SS00 AFT 12UTC/28/LAST STFD OBS NEXT 071800Z SLP068

Closest aviation forecast (TAF) to Old Arctic Bay Airport

Closest forecast is Arctic Bay Airport, 0.2 nm (0.3 km) W. Retrieved 2019/12/07 20:00 UTC (0 seconds ago):

TAF CYAB 071938Z 0720/0723 FCST NOT AVBL DUE NO OBS RMK NXT FCST WILL BE ISSUED AT 091345Z